Time;durP1;ratioP1;P1;durP2;ratioP2;P2;SDS_P1;SDS_P2;PMS_P1;PMS_P2;Temp;Humidity;BMP_temperature;BMP_pressure;BME280_temperature;BME280_humidity;BME280_pressure;Samples;Min_cycle;Max_cycle;Signal;HPM_P1;HPM_P2
2023/05/21 00:00:11;;;;;;;;;;;;;;;19.16;60.81;99361.25;4377081;32;34715;-92
2023/05/21 00:02:39;;;;;;;;;;;;;;;19.26;60.70;99359.91;4377238;32;33979;-92
2023/05/21 00:05:10;;;;;;;;;;;;;;;19.19;61.24;99359.34;4388289;32;34905;-93
2023/05/21 00:07:41;;;;;;;;;;;;;;;19.03;61.68;99359.19;4376088;32;34948;-93
2023/05/21 00:10:09;;;;;;;;;;;;;;;18.68;63.25;99358.06;4375995;32;35458;-93
2023/05/21 00:12:37;;;;;;;;;;;;;;;18.59;64.70;99359.34;4377039;32;33268;-92
2023/05/21 00:15:06;;;;;;;;;;;;;;;18.58;63.88;99362.88;4375968;32;34880;-93
2023/05/21 00:17:35;;;;;;;;;;;;;;;18.44;64.96;99360.87;4375848;32;35788;-94
2023/05/21 00:20:07;;;;;;;;;;;;;;;18.81;63.19;99361.03;4375752;32;34620;-93
2023/05/21 00:22:35;;;;;;;;;;;;;;;19.22;61.27;99358.31;4377002;32;33263;-93
2023/05/21 00:25:04;;;;;;;;;;;;;;;19.03;62.00;99364.47;4376921;32;34245;-92
2023/05/21 00:27:32;;;;;;;;;;;;;;;18.98;62.06;99371.72;4376930;32;34861;-92
2023/05/21 00:30:00;;;;;;;;;;;;;;;19.22;60.94;99382.09;4377981;32;35058;-95
2023/05/21 00:32:29;;;;;;;;;;;;;;;19.05;61.98;99378.44;4379157;32;33389;-92
2023/05/21 00:34:57;;;;;;;;;;;;;;;18.80;62.56;99376.00;4379054;32;34611;-93
2023/05/21 00:37:25;;;;;;;;;;;;;;;19.24;61.23;99367.06;4379104;32;36008;-93
2023/05/21 00:39:53;;;;;;;;;;;;;;;18.83;62.95;99370.63;4379040;32;34568;-93
2023/05/21 00:42:26;;;;;;;;;;;;;;;18.68;63.97;99380.03;4378128;32;34059;-93
2023/05/21 00:44:54;;;;;;;;;;;;;;;18.49;64.21;99376.47;4390184;32;33805;-93
2023/05/21 00:47:22;;;;;;;;;;;;;;;18.63;63.97;99376.72;4377930;32;35156;-94
2023/05/21 00:49:53;;;;;;;;;;;;;;;18.44;65.03;99373.16;4377932;32;35333;-92
2023/05/21 00:52:21;;;;;;;;;;;;;;;18.22;65.63;99376.72;4377922;32;33338;-93
2023/05/21 00:54:49;;;;;;;;;;;;;;;18.34;64.80;99370.94;4379049;32;34259;-93
2023/05/21 00:57:19;;;;;;;;;;;;;;;18.29;65.58;99364.12;4349001;32;932635;-93
2023/05/21 00:59:51;;;;;;;;;;;;;;;18.34;64.98;99370.94;4378641;32;34234;-93
2023/05/21 01:02:19;;;;;;;;;;;;;;;18.04;66.17;99361.69;4378428;32;34057;-93
2023/05/21 01:04:47;;;;;;;;;;;;;;;17.91;67.33;99363.94;4378471;32;32910;-94
2023/05/21 01:07:17;;;;;;;;;;;;;;;17.79;67.29;99365.28;4379536;32;35177;-93
2023/05/21 01:09:45;;;;;;;;;;;;;;;17.60;68.82;99363.34;4378296;32;34694;-93
2023/05/21 01:12:13;;;;;;;;;;;;;;;17.84;67.19;99360.66;4378471;32;33513;-93
2023/05/21 01:14:41;;;;;;;;;;;;;;;17.35;71.16;99358.19;4379575;32;34819;-93
2023/05/21 01:17:09;;;;;;;;;;;;;;;17.25;71.42;99357.66;4379446;32;34799;-93
2023/05/21 01:19:37;;;;;;;;;;;;;;;17.15;71.01;99361.56;4379419;32;35435;-93
2023/05/21 01:22:06;;;;;;;;;;;;;;;17.42;69.71;99348.28;4379371;32;33225;-93
2023/05/21 01:24:34;;;;;;;;;;;;;;;17.53;70.16;99346.06;4379458;32;33889;-92
2023/05/21 01:27:05;;;;;;;;;;;;;;;17.34;71.24;99348.56;4379423;32;36095;-93
2023/05/21 01:29:33;;;;;;;;;;;;;;;17.14;71.54;99343.22;4379719;32;34207;-93
2023/05/21 01:32:30;;;;;;;;;;;;;;;17.24;71.26;99340.19;4379414;32;34027;-92
2023/05/21 01:35:09;;;;;;;;;;;;;;;17.68;68.98;99346.37;4372632;32;34039;-94
2023/05/21 01:37:43;;;;;;;;;;;;;;;17.70;69.09;99344.53;4378327;32;34796;-93
2023/05/21 01:40:26;;;;;;;;;;;;;;;17.71;68.96;99339.22;4378046;32;34610;-93
2023/05/21 01:42:54;;;;;;;;;;;;;;;17.41;70.28;99336.03;4377967;32;32165;-93
2023/05/21 01:45:23;;;;;;;;;;;;;;;17.73;68.29;99341.78;4378255;32;34720;-94
2023/05/21 01:47:51;;;;;;;;;;;;;;;17.88;67.64;99345.63;4378173;32;35728;-93
2023/05/21 01:50:19;;;;;;;;;;;;;;;17.62;68.04;99345.72;4378174;32;35543;-93
2023/05/21 01:52:48;;;;;;;;;;;;;;;17.43;69.26;99349.97;4365870;32;33307;-93
2023/05/21 01:55:16;;;;;;;;;;;;;;;17.56;68.84;99345.97;4378111;32;34614;-93
2023/05/21 01:57:44;;;;;;;;;;;;;;;17.73;67.85;99347.06;4378139;32;35026;-93
2023/05/21 02:00:12;;;;;;;;;;;;;;;17.48;68.50;99348.03;4379225;32;35160;-93
2023/05/21 02:02:41;;;;;;;;;;;;;;;17.59;68.40;99355.50;4378060;32;33444;-93
2023/05/21 02:05:10;;;;;;;;;;;;;;;17.54;68.59;99347.81;4378391;32;34884;-94
2023/05/21 02:07:39;;;;;;;;;;;;;;;17.31;69.22;99351.34;4378029;32;34789;-93
2023/05/21 02:10:07;;;;;;;;;;;;;;;17.57;68.71;99346.81;4379282;32;35347;-94
2023/05/21 02:12:35;;;;;;;;;;;;;;;17.33;69.16;99345.97;4378007;32;34048;-93
2023/05/21 02:15:03;;;;;;;;;;;;;;;17.46;69.05;99359.56;4390323;32;34117;-93
2023/05/21 02:17:32;;;;;;;;;;;;;;;17.56;68.17;99352.97;4378981;32;35258;-92
2023/05/21 02:20:11;;;;;;;;;;;;;;;17.48;68.09;99348.03;4378247;32;34623;-93
2023/05/21 02:22:40;;;;;;;;;;;;;;;17.30;69.53;99349.59;4378022;32;34252;-92
2023/05/21 02:25:08;;;;;;;;;;;;;;;17.17;69.89;99343.97;4378000;32;34926;-93
2023/05/21 02:27:36;;;;;;;;;;;;;;;17.21;68.92;99345.53;4377997;32;36009;-93
2023/05/21 02:30:06;;;;;;;;;;;;;;;17.03;69.79;99348.88;4379079;32;35396;-93
2023/05/21 02:32:34;;;;;;;;;;;;;;;17.23;69.27;99341.06;4377924;32;33454;-93
2023/05/21 02:35:03;;;;;;;;;;;;;;;17.21;69.30;99339.44;4378033;32;34097;-93
2023/05/21 02:37:34;;;;;;;;;;;;;;;17.11;69.28;99345.94;4377843;32;36104;-92
2023/05/21 02:40:04;;;;;;;;;;;;;;;16.94;69.99;99339.56;4377902;32;34721;-93
2023/05/21 02:42:32;;;;;;;;;;;;;;;16.93;69.97;99345.72;4378187;32;35181;-92
2023/05/21 02:45:00;;;;;;;;;;;;;;;16.56;73.97;99347.00;4377760;32;34227;-93
2023/05/21 02:47:29;;;;;;;;;;;;;;;16.39;74.46;99350.22;4378051;32;35209;-93
2023/05/21 02:49:58;;;;;;;;;;;;;;;16.26;75.76;99352.41;4377745;32;35257;-92
2023/05/21 02:52:26;;;;;;;;;;;;;;;16.16;76.56;99348.38;4365515;32;34328;-93
2023/05/21 02:54:54;;;;;;;;;;;;;;;16.11;76.35;99348.53;4379126;32;34861;-93
2023/05/21 02:57:22;;;;;;;;;;;;;;;16.49;73.44;99330.59;4377479;32;35138;-93
2023/05/21 02:59:50;;;;;;;;;;;;;;;16.57;72.41;99339.97;4379014;32;34479;-93
2023/05/21 03:02:18;;;;;;;;;;;;;;;16.57;72.19;99343.47;4377781;32;33391;-93
2023/05/21 03:04:47;;;;;;;;;;;;;;;16.74;71.35;99348.13;4378008;32;34533;-93
2023/05/21 03:07:17;;;;;;;;;;;;;;;16.55;72.28;99347.91;4378999;32;35654;-93
2023/05/21 03:09:45;;;;;;;;;;;;;;;16.36;72.79;99345.09;4377777;32;34103;-93
2023/05/21 03:12:14;;;;;;;;;;;;;;;16.89;70.39;99348.50;4377891;32;34060;-93
2023/05/21 03:14:42;;;;;;;;;;;;;;;16.66;70.96;99344.94;4378703;32;34296;-93
2023/05/21 03:17:12;;;;;;;;;;;;;;;16.76;70.71;99342.81;4377560;32;35541;-93
2023/05/21 03:19:40;;;;;;;;;;;;;;;16.91;70.47;99347.56;4378682;32;35074;-93
2023/05/21 03:22:08;;;;;;;;;;;;;;;16.93;69.75;99344.87;4378582;32;34089;-93
2023/05/21 03:24:37;;;;;;;;;;;;;;;16.78;70.45;99344.50;4378644;32;34027;-93
2023/05/21 03:27:05;;;;;;;;;;;;;;;16.78;70.58;99346.25;4378616;32;35176;-93
2023/05/21 03:29:33;;;;;;;;;;;;;;;16.72;70.69;99344.69;4377784;32;34635;-93
2023/05/21 03:32:01;;;;;;;;;;;;;;;16.57;72.50;99337.34;4365217;32;32352;-94
2023/05/21 03:34:33;;;;;;;;;;;;;;;16.37;72.95;99336.28;4378573;32;33806;-92
2023/05/21 03:37:01;;;;;;;;;;;;;;;16.34;73.51;99336.41;4378846;32;35136;-94
2023/05/21 03:39:29;;;;;;;;;;;;;;;16.55;72.54;99334.75;4365369;32;33304;-93
2023/05/21 03:41:57;;;;;;;;;;;;;;;16.67;70.78;99333.47;4377576;32;33614;-93
2023/05/21 03:44:26;;;;;;;;;;;;;;;16.81;69.65;99340.88;4378778;32;34090;-93
2023/05/21 03:46:55;;;;;;;;;;;;;;;16.75;69.87;99336.69;4377544;32;35263;-93
2023/05/21 03:49:24;;;;;;;;;;;;;;;16.40;72.14;99341.44;4389974;32;35401;-93
2023/05/21 03:51:52;;;;;;;;;;;;;;;16.48;71.90;99339.41;4377261;32;33124;-93
2023/05/21 03:54:22;;;;;;;;;;;;;;;16.47;71.84;99336.81;4377595;32;34213;-93
2023/05/21 03:56:50;;;;;;;;;;;;;;;16.57;71.85;99345.22;4377279;32;35207;-93
2023/05/21 03:59:18;;;;;;;;;;;;;;;16.98;69.56;99338.53;4377385;32;34739;-93
2023/05/21 04:01:47;;;;;;;;;;;;;;;17.18;67.88;99345.66;4378536;32;33465;-93
2023/05/21 04:04:15;;;;;;;;;;;;;;;17.04;69.76;99342.69;4377675;32;34241;-94
2023/05/21 04:06:43;;;;;;;;;;;;;;;16.89;70.31;99349.38;4376990;32;35270;-93
2023/05/21 04:09:12;;;;;;;;;;;;;;;17.05;68.58;99349.69;4378187;32;34708;-93
2023/05/21 04:11:40;;;;;;;;;;;;;;;17.15;69.65;99340.50;4389318;32;33510;-93
2023/05/21 04:14:09;;;;;;;;;;;;;;;16.93;70.08;99347.50;4376907;32;32930;-92
2023/05/21 04:16:37;;;;;;;;;;;;;;;17.20;69.21;99349.09;4376997;32;34840;-93
2023/05/21 04:19:06;;;;;;;;;;;;;;;17.19;70.53;99355.28;4376887;32;35413;-93
2023/05/21 04:21:33;;;;;;;;;;;;;;;17.38;69.37;99352.81;4377940;32;33223;-93
2023/05/21 04:24:02;;;;;;;;;;;;;;;17.58;69.94;99351.19;4378279;32;34852;-96
2023/05/21 04:26:32;;;;;;;;;;;;;;;17.91;69.34;99362.19;4377086;32;34901;-92
2023/05/21 04:29:04;;;;;;;;;;;;;;;18.09;68.23;99352.66;4376814;32;33835;-93
2023/05/21 04:31:32;;;;;;;;;;;;;;;18.65;67.00;99353.78;4364830;32;33980;-93
2023/05/21 04:34:01;;;;;;;;;;;;;;;18.95;65.00;99353.37;4376687;32;32390;-93
2023/05/21 04:36:29;;;;;;;;;;;;;;;18.94;66.81;99359.59;4376648;32;35756;-93
2023/05/21 04:38:57;;;;;;;;;;;;;;;19.41;63.16;99360.97;4377650;32;35445;-92
2023/05/21 04:41:25;;;;;;;;;;;;;;;19.55;63.86;99365.59;4376572;32;33185;-93
2023/05/21 04:43:59;;;;;;;;;;;;;;;19.80;63.32;99365.31;4376931;32;34998;-93
2023/05/21 04:46:29;;;;;;;;;;;;;;;19.92;61.82;99359.44;4388721;32;35770;-92
2023/05/21 04:49:01;;;;;;;;;;;;;;;20.06;60.92;99367.53;4377551;32;35392;-93
2023/05/21 04:51:30;;;;;;;;;;;;;;;20.49;58.73;99353.97;4377976;32;33000;-92
2023/05/21 04:53:58;;;;;;;;;;;;;;;20.72;55.92;99354.56;4376393;32;34720;-93
2023/05/21 04:56:26;;;;;;;;;;;;;;;20.99;55.00;99358.41;4376168;32;35204;-95
2023/05/21 04:58:54;;;;;;;;;;;;;;;20.58;57.71;99358.78;4377826;32;34372;-92
2023/05/21 05:01:22;;;;;;;;;;;;;;;21.04;56.39;99357.34;4364042;32;32180;-92
2023/05/21 05:03:50;;;;;;;;;;;;;;;20.85;55.98;99349.50;4377577;32;34633;-92
2023/05/21 05:06:18;;;;;;;;;;;;;;;21.32;53.99;99349.59;4377402;32;34979;-92
2023/05/21 05:08:46;;;;;;;;;;;;;;;20.86;55.59;99353.84;4362885;32;35084;-94
2023/05/21 05:11:15;;;;;;;;;;;;;;;21.63;53.86;99352.34;4362167;32;33077;-94
2023/05/21 05:13:43;;;;;;;;;;;;;;;21.60;52.88;99353.41;4360773;32;34140;-94
2023/05/21 05:16:11;;;;;;;;;;;;;;;21.48;53.65;99354.09;4362462;32;35753;-91
2023/05/21 05:18:40;;;;;;;;;;;;;;;22.11;51.51;99347.84;4363109;32;33764;-91
2023/05/21 05:21:11;;;;;;;;;;;;;;;21.80;52.22;99349.62;4364390;32;33948;-92
2023/05/21 05:23:38;;;;;;;;;;;;;;;22.27;50.00;99348.69;4362956;32;34674;-91
2023/05/21 05:26:06;;;;;;;;;;;;;;;22.55;50.40;99343.53;4363075;32;33738;-92
2023/05/21 05:28:35;;;;;;;;;;;;;;;23.22;48.98;99351.84;4364458;32;34639;-94
2023/05/21 05:31:03;;;;;;;;;;;;;;;23.22;48.01;99352.69;4363475;32;33308;-90
2023/05/21 05:33:31;;;;;;;;;;;;;;;23.16;49.66;99347.75;4364501;32;34083;-92
2023/05/21 05:36:00;;;;;;;;;;;;;;;23.48;45.85;99347.53;4364259;32;35253;-92
2023/05/21 05:38:27;;;;;;;;;;;;;;;22.93;51.13;99340.34;4364513;32;35176;-93
2023/05/21 05:40:55;;;;;;;;;;;;;;;22.37;49.43;99341.03;4363411;32;33742;-92
2023/05/21 05:43:25;;;;;;;;;;;;;;;23.10;49.59;99350.78;4364077;32;34921;-92
2023/05/21 05:45:54;;;;;;;;;;;;;;;23.12;48.59;99346.25;4364290;32;35114;-91
2023/05/21 05:48:23;;;;;;;;;;;;;;;23.54;47.73;99351.59;4362982;32;34864;-92
2023/05/21 05:50:53;;;;;;;;;;;;;;;23.46;47.01;99354.75;4364463;32;34135;-91
2023/05/21 05:53:22;;;;;;;;;;;;;;;23.59;46.71;99352.16;4360724;32;35326;-92
2023/05/21 05:55:50;;;;;;;;;;;;;;;24.12;46.23;99352.28;4349387;33;35294;-90
2023/05/21 05:58:18;;;;;;;;;;;;;;;24.32;45.94;99346.47;4357528;32;35298;-91
2023/05/21 06:00:46;;;;;;;;;;;;;;;24.35;45.15;99354.22;4363349;32;33428;-94
2023/05/21 06:03:15;;;;;;;;;;;;;;;23.93;46.61;99342.88;4364150;32;33872;-95
2023/05/21 06:05:43;;;;;;;;;;;;;;;24.92;43.31;99344.22;4364326;32;35402;-94
2023/05/21 06:08:11;;;;;;;;;;;;;;;24.71;44.99;99336.75;4364013;32;34362;-94
2023/05/21 06:10:39;;;;;;;;;;;;;;;24.81;44.56;99344.09;4364075;32;33497;-92
2023/05/21 06:13:08;;;;;;;;;;;;;;;25.31;44.04;99337.03;4362663;32;34017;-93
2023/05/21 06:15:38;;;;;;;;;;;;;;;25.03;42.92;99338.97;4363992;32;35236;-93
2023/05/21 06:18:06;;;;;;;;;;;;;;;25.43;40.79;99346.81;4362789;32;35397;-92
2023/05/21 06:20:34;;;;;;;;;;;;;;;24.97;41.89;99344.72;4362809;32;33138;-92
2023/05/21 06:23:02;;;;;;;;;;;;;;;25.29;41.00;99338.94;4362420;32;32887;-92
2023/05/21 06:25:30;;;;;;;;;;;;;;;25.41;41.26;99345.19;4363105;32;35184;-93
2023/05/21 06:27:58;;;;;;;;;;;;;;;25.42;41.67;99339.75;4363672;32;35292;-93
2023/05/21 06:30:26;;;;;;;;;;;;;;;25.58;41.78;99342.16;4363138;32;33416;-94
2023/05/21 06:32:56;;;;;;;;;;;;;;;25.65;40.60;99346.06;4362550;32;34185;-93
2023/05/21 06:35:24;;;;;;;;;;;;;;;26.04;40.46;99351.28;4363978;32;35198;-92
2023/05/21 06:37:52;;;;;;;;;;;;;;;26.14;40.09;99330.94;4363980;32;34669;-92
2023/05/21 06:40:20;;;;;;;;;;;;;;;26.20;39.25;99333.13;4364171;32;33435;-92
2023/05/21 06:42:50;;;;;;;;;;;;;;;26.26;38.70;99339.81;4362709;32;35082;-91
2023/05/21 06:45:20;;;;;;;;;;;;;;;25.90;39.32;99338.94;4363932;32;34986;-92
2023/05/21 06:47:50;;;;;;;;;;;;;;;25.31;40.74;99331.69;4363960;32;34494;-93
2023/05/21 06:50:19;;;;;;;;;;;;;;;25.79;41.44;99331.72;4364033;32;33420;-92
2023/05/21 06:52:46;;;;;;;;;;;;;;;26.28;41.01;99322.75;4362563;32;32801;-93
2023/05/21 06:55:15;;;;;;;;;;;;;;;26.95;40.00;99315.81;4350297;32;34079;-93
2023/05/21 06:57:46;;;;;;;;;;;;;;;27.00;38.25;99326.12;4363984;32;34202;-92
2023/05/21 07:00:14;;;;;;;;;;;;;;;26.75;39.45;99319.22;4363966;32;34002;-94
2023/05/21 07:02:42;;;;;;;;;;;;;;;26.80;40.30;99325.88;4362750;32;33938;-92
2023/05/21 07:05:10;;;;;;;;;;;;;;;26.90;41.69;99326.03;4363244;32;35146;-92
2023/05/21 07:07:38;;;;;;;;;;;;;;;26.94;40.28;99323.97;4374901;32;34711;-92
2023/05/21 07:10:07;;;;;;;;;;;;;;;26.25;39.14;99322.13;4363477;32;33065;-93
2023/05/21 07:12:35;;;;;;;;;;;;;;;26.87;40.56;99328.94;4363425;32;34041;-93
2023/05/21 07:15:03;;;;;;;;;;;;;;;26.65;37.82;99319.94;4362773;32;34840;-94
2023/05/21 07:17:31;;;;;;;;;;;;;;;27.01;38.31;99327.84;4374667;32;34701;-94
2023/05/21 07:19:59;;;;;;;;;;;;;;;27.34;37.21;99332.34;4362537;32;33300;-95
2023/05/21 07:22:28;;;;;;;;;;;;;;;27.40;39.15;99321.13;4363584;32;34917;-94
2023/05/21 07:24:56;;;;;;;;;;;;;;;27.50;37.49;99325.75;4362280;32;35970;-94
2023/05/21 07:27:25;;;;;;;;;;;;;;;27.69;36.48;99325.94;4363600;32;34722;-96
2023/05/21 07:29:53;;;;;;;;;;;;;;;28.01;35.76;99330.50;4363649;32;33452;-95
2023/05/21 07:32:21;;;;;;;;;;;;;;;27.66;35.97;99328.03;4362734;32;33992;-92
2023/05/21 07:34:50;;;;;;;;;;;;;;;28.45;35.77;99320.53;4363231;32;35012;-94
2023/05/21 07:37:22;;;;;;;;;;;;;;;28.56;35.06;99322.31;4362748;32;34391;-95
2023/05/21 07:39:50;;;;;;;;;;;;;;;28.63;35.12;99326.16;4362248;32;34039;-93
2023/05/21 07:42:18;;;;;;;;;;;;;;;27.91;37.17;99325.03;4363878;32;34170;-93
2023/05/21 07:44:46;;;;;;;;;;;;;;;27.60;38.05;99315.97;4362985;32;35249;-95
2023/05/21 07:47:14;;;;;;;;;;;;;;;28.05;37.87;99315.03;4349892;32;34709;-95
2023/05/21 07:49:42;;;;;;;;;;;;;;;28.57;35.66;99315.09;4362137;32;34239;-93
2023/05/21 07:52:10;;;;;;;;;;;;;;;27.89;38.54;99315.41;4362168;32;33859;-94
2023/05/21 07:54:38;;;;;;;;;;;;;;;28.35;36.80;99316.94;4361948;32;35679;-96
2023/05/21 07:57:07;;;;;;;;;;;;;;;28.34;35.87;99312.53;4361884;32;34015;-94
2023/05/21 07:59:38;;;;;;;;;;;;;;;28.46;37.48;99308.81;4363207;32;33975;-94
2023/05/21 08:02:06;;;;;;;;;;;;;;;29.30;34.10;99306.00;4350176;32;34829;-96
2023/05/21 08:04:35;;;;;;;;;;;;;;;29.11;34.79;99303.22;4363325;32;35260;-94
2023/05/21 08:07:08;;;;;;;;;;;;;;;29.19;34.71;99302.56;4362275;32;34450;-96
2023/05/21 08:09:36;;;;;;;;;;;;;;;29.63;34.21;99309.31;4362744;32;33260;-96
2023/05/21 08:12:05;;;;;;;;;;;;;;;29.68;34.50;99316.94;4362603;32;34224;-94
2023/05/21 08:14:34;;;;;;;;;;;;;;;28.89;36.97;99305.13;4361975;32;35966;-94
2023/05/21 08:17:03;;;;;;;;;;;;;;;29.04;33.96;99312.81;4363246;32;35391;-96
2023/05/21 08:19:32;;;;;;;;;;;;;;;28.88;36.24;99326.69;4349892;32;32213;-96
2023/05/21 08:22:00;;;;;;;;;;;;;;;28.71;33.55;99306.72;4349785;32;34319;-93
2023/05/21 08:24:30;;;;;;;;;;;;;;;28.39;35.14;99307.63;4362992;32;34886;-96
2023/05/21 08:26:58;;;;;;;;;;;;;;;28.80;34.05;99308.63;4349490;32;34251;-94
2023/05/21 08:29:26;;;;;;;;;;;;;;;28.86;36.46;99312.59;4362688;32;33082;-93
2023/05/21 08:31:54;;;;;;;;;;;;;;;28.54;35.39;99310.88;4349257;32;33084;-96
2023/05/21 08:34:22;;;;;;;;;;;;;;;28.86;34.99;99309.91;4349413;32;34686;-94
2023/05/21 08:36:52;;;;;;;;;;;;;;;29.12;37.17;99310.31;4349278;32;33116;-94
2023/05/21 08:39:22;;;;;;;;;;;;;;;29.40;33.90;99308.72;4362028;32;34430;-95
2023/05/21 08:41:50;;;;;;;;;;;;;;;29.04;34.70;99318.16;4373936;32;35007;-94
2023/05/21 08:44:20;;;;;;;;;;;;;;;28.85;34.13;99306.34;4362325;32;35152;-94
2023/05/21 08:46:49;;;;;;;;;;;;;;;28.96;34.16;99313.50;4362392;32;34657;-95
2023/05/21 08:49:17;;;;;;;;;;;;;;;29.30;33.29;99308.69;4361785;32;32927;-94
2023/05/21 08:51:45;;;;;;;;;;;;;;;29.14;32.90;99302.97;4364465;32;33836;-95
2023/05/21 08:54:14;;;;;;;;;;;;;;;29.11;33.50;99303.22;4364642;32;35075;-96
2023/05/21 08:56:45;;;;;;;;;;;;;;;29.02;34.87;99314.78;4365059;32;34607;-96
2023/05/21 08:59:16;;;;;;;;;;;;;;;29.18;34.13;99308.94;4363747;32;33069;-96
2023/05/21 09:01:44;;;;;;;;;;;;;;;28.66;39.09;99306.28;4363803;32;33810;-96
2023/05/21 09:04:14;;;;;;;;;;;;;;;29.08;39.04;99304.38;4364102;32;34830;-95
2023/05/21 09:06:48;;;;;;;;;;;;;;;29.35;34.60;99304.72;4364376;32;35161;-96
2023/05/21 09:09:21;;;;;;;;;;;;;;;30.10;32.93;99302.44;4363725;32;32626;-96
2023/05/21 09:11:50;;;;;;;;;;;;;;;29.91;36.65;99305.97;4351924;32;34262;-96
2023/05/21 09:14:18;;;;;;;;;;;;;;;29.64;33.23;99302.09;4364629;32;34777;-92
2023/05/21 09:16:47;;;;;;;;;;;;;;;29.66;33.90;99292.91;4376294;32;35397;-95
2023/05/21 09:19:19;;;;;;;;;;;;;;;30.36;31.52;99303.56;4363688;32;33308;-94
2023/05/21 09:21:47;;;;;;;;;;;;;;;29.57;38.13;99299.13;4365381;32;34288;-94
2023/05/21 09:24:17;;;;;;;;;;;;;;;29.99;33.59;99309.63;4364236;32;34837;-95
2023/05/21 09:26:45;;;;;;;;;;;;;;;30.09;32.26;99298.03;4363651;32;34142;-96
2023/05/21 09:29:13;;;;;;;;;;;;;;;29.67;33.71;99304.53;4363730;32;32567;-96
2023/05/21 09:31:42;;;;;;;;;;;;;;;30.49;32.61;99318.50;4364054;32;34313;-94
2023/05/21 09:34:12;;;;;;;;;;;;;;;30.30;31.98;99296.03;4363730;32;35161;-96
2023/05/21 09:36:42;;;;;;;;;;;;;;;29.67;34.20;99308.03;4351588;32;33924;-96
2023/05/21 09:39:15;;;;;;;;;;;;;;;30.85;32.97;99300.72;4352083;32;32532;-95
2023/05/21 09:41:43;;;;;;;;;;;;;;;30.00;33.63;99300.59;4363749;32;34076;-95
2023/05/21 09:44:12;;;;;;;;;;;;;;;30.96;31.79;99297.88;4363980;32;35002;-96
2023/05/21 09:46:40;;;;;;;;;;;;;;;31.13;31.37;99304.31;4364107;32;35481;-96
2023/05/21 09:49:22;;;;;;;;;;;;;;;31.31;30.12;99316.97;4363789;32;33410;-96
2023/05/21 09:51:57;;;;;;;;;;;;;;;30.54;32.20;99300.13;4363615;32;33752;-95
2023/05/21 09:54:29;;;;;;;;;;;;;;;30.59;31.67;99300.53;4363374;32;36187;-96
2023/05/21 09:56:59;;;;;;;;;;;;;;;30.53;31.64;99306.47;4351217;32;33048;-96
2023/05/21 09:59:37;;;;;;;;;;;;;;;31.37;30.55;99294.81;4364360;32;33408;-95
2023/05/21 10:02:21;;;;;;;;;;;;;;;31.10;29.25;99288.47;4364156;32;34131;-96
2023/05/21 10:04:50;;;;;;;;;;;;;;;31.16;30.05;99293.22;4364782;32;35346;-95
2023/05/21 10:07:25;;;;;;;;;;;;;;;30.30;35.21;99295.19;4351265;32;34661;-96
2023/05/21 10:09:57;;;;;;;;;;;;;;;31.12;30.05;99291.84;4364463;32;33313;-96
2023/05/21 10:12:25;;;;;;;;;;;;;;;31.26;32.24;99286.97;4363831;32;34133;-95
2023/05/21 10:14:54;;;;;;;;;;;;;;;31.27;32.04;99294.03;4363868;32;35145;-96
2023/05/21 10:17:22;;;;;;;;;;;;;;;31.48;29.60;99285.69;4364269;32;34657;-95
2023/05/21 10:19:50;;;;;;;;;;;;;;;31.01;31.63;99286.69;4364381;32;33498;-96
2023/05/21 10:22:17;;;;;;;;;;;;;;;31.26;31.05;99284.28;4364435;32;34207;-96
2023/05/21 10:24:46;;;;;;;;;;;;;;;30.51;33.11;99282.44;4363683;32;34168;-96
2023/05/21 10:27:14;;;;;;;;;;;;;;;30.63;31.92;99275.03;4350776;32;35471;-95
2023/05/21 10:29:42;;;;;;;;;;;;;;;31.32;31.42;99275.59;4350812;32;31855;-96
2023/05/21 10:32:11;;;;;;;;;;;;;;;31.12;33.48;99274.88;4364130;32;34951;-96
2023/05/21 10:34:39;;;;;;;;;;;;;;;31.43;28.26;99271.84;4364060;32;36060;-95
2023/05/21 10:37:08;;;;;;;;;;;;;;;31.66;28.93;99277.66;4363163;32;35120;-96
2023/05/21 10:39:36;;;;;;;;;;;;;;;31.22;30.15;99277.50;4366289;32;33481;-96
2023/05/21 10:42:17;;;;;;;;;;;;;;;30.57;30.05;99281.03;4363819;32;35013;-95
2023/05/21 10:44:54;;;;;;;;;;;;;;;31.14;31.59;99268.34;4351697;32;33930;-96
2023/05/21 10:47:34;;;;;;;;;;;;;;;31.19;30.42;99271.41;4361785;32;34734;-96
2023/05/21 10:50:20;;;;;;;;;;;;;;;31.68;27.99;99275.63;4362330;32;32667;-96
2023/05/21 10:53:08;;;;;;;;;;;;;;;31.50;27.48;99271.13;4362304;32;34034;-96
2023/05/21 10:55:42;;;;;;;;;;;;;;;31.33;28.00;99266.53;4355865;32;35438;-96
2023/05/21 10:58:29;;;;;;;;;;;;;;;31.41;29.23;99268.47;4362219;32;34092;-96
2023/05/21 11:00:57;;;;;;;;;;;;;;;30.81;29.09;99262.53;4363942;32;33746;-96
2023/05/21 11:03:25;;;;;;;;;;;;;;;31.11;29.09;99262.41;4362822;32;34915;-96
2023/05/21 11:05:54;;;;;;;;;;;;;;;30.88;31.34;99262.75;4364076;32;36074;-96
2023/05/21 11:08:34;;;;;;;;;;;;;;;31.13;32.08;99263.09;4364052;32;35406;-95
2023/05/21 11:11:02;;;;;;;;;;;;;;;31.28;31.85;99258.06;4363408;32;33512;-96
2023/05/21 11:13:47;;;;;;;;;;;;;;;30.91;31.10;99256.25;4364230;32;34977;-95
2023/05/21 11:16:16;;;;;;;;;;;;;;;31.24;32.50;99251.28;4364958;32;35379;-96
2023/05/21 11:18:44;;;;;;;;;;;;;;;30.34;34.38;99254.50;4363427;32;34521;-96
2023/05/21 11:21:13;;;;;;;;;;;;;;;30.10;30.83;99256.78;4363722;32;32623;-95
2023/05/21 11:23:57;;;;;;;;;;;;;;;30.11;31.78;99253.06;4351007;32;32442;-96
2023/05/21 11:26:26;;;;;;;;;;;;;;;30.21;31.22;99262.84;4363109;32;35943;-95
2023/05/21 11:29:03;;;;;;;;;;;;;;;30.26;29.62;99257.03;4363855;32;35328;-96
2023/05/21 11:31:36;;;;;;;;;;;;;;;29.49;34.25;99253.37;4364007;32;33091;-95
2023/05/21 11:34:15;;;;;;;;;;;;;;;30.22;30.51;99250.25;4351082;32;32449;-95
2023/05/21 11:36:44;;;;;;;;;;;;;;;30.40;32.37;99245.84;4363333;32;36503;-96
2023/05/21 11:39:20;;;;;;;;;;;;;;;31.40;29.85;99255.97;4364104;32;34702;-96
2023/05/21 11:41:58;;;;;;;;;;;;;;;30.73;29.46;99248.97;4363787;32;33445;-96
2023/05/21 11:44:39;;;;;;;;;;;;;;;29.72;32.06;99247.72;4363616;32;34018;-96
2023/05/21 11:47:08;;;;;;;;;;;;;;;30.19;30.45;99245.16;4339033;32;34541;-96
2023/05/21 11:49:36;;;;;;;;;;;;;;;30.24;30.89;99237.53;4362503;32;35350;-96
2023/05/21 11:52:05;;;;;;;;;;;;;;;30.34;30.80;99238.37;4362538;32;31705;-95
2023/05/21 11:54:45;;;;;;;;;;;;;;;30.46;28.30;99243.56;4363015;32;34966;-94
2023/05/21 11:57:17;;;;;;;;;;;;;;;30.40;28.58;99245.84;4364230;32;34490;-96
2023/05/21 11:59:45;;;;;;;;;;;;;;;30.14;28.83;99237.53;4374906;32;34587;-96
2023/05/21 12:02:15;;;;;;;;;;;;;;;30.61;29.39;99245.63;4362609;32;33619;-96
2023/05/21 12:04:44;;;;;;;;;;;;;;;30.23;31.07;99236.69;4363405;32;35314;-96
2023/05/21 12:07:12;;;;;;;;;;;;;;;29.67;34.13;99230.22;4362528;32;36443;-96
2023/05/21 12:09:41;;;;;;;;;;;;;;;30.00;32.62;99227.25;4374721;32;35341;-96
2023/05/21 12:12:10;;;;;;;;;;;;;;;29.99;34.24;99221.03;4374566;32;33805;-96
2023/05/21 12:14:38;;;;;;;;;;;;;;;29.67;31.00;99224.00;4362297;32;33893;-96
2023/05/21 12:17:06;;;;;;;;;;;;;;;30.27;32.05;99218.44;4362196;32;35265;-95
2023/05/21 12:19:35;;;;;;;;;;;;;;;30.01;35.40;99212.84;4350023;32;33250;-95
2023/05/21 12:22:03;;;;;;;;;;;;;;;30.42;33.67;99214.28;4362944;32;34152;-96
2023/05/21 12:24:31;;;;;;;;;;;;;;;31.07;30.34;99226.91;4362366;32;34072;-96
2023/05/21 12:27:00;;;;;;;;;;;;;;;30.79;29.00;99221.50;4364839;32;35983;-95
2023/05/21 12:29:29;;;;;;;;;;;;;;;31.06;30.34;99217.16;4363800;32;34706;-95
2023/05/21 12:32:00;;;;;;;;;;;;;;;30.69;33.07;99209.97;4351750;32;32504;-96
2023/05/21 12:34:39;;;;;;;;;;;;;;;30.69;29.76;99215.34;4364349;32;33877;-96
2023/05/21 12:37:07;;;;;;;;;;;;;;;30.57;29.71;99211.16;4363997;32;35242;-95
2023/05/21 12:39:38;;;;;;;;;;;;;;;30.32;31.09;99208.09;4364942;32;35370;-95
2023/05/21 12:42:07;;;;;;;;;;;;;;;30.31;32.69;99200.19;4365150;32;34041;-95
2023/05/21 12:44:37;;;;;;;;;;;;;;;30.24;32.31;99202.59;4364275;32;34099;-95
2023/05/21 12:47:05;;;;;;;;;;;;;;;30.61;29.51;99201.78;4363689;32;34242;-95
2023/05/21 12:49:33;;;;;;;;;;;;;;;30.43;29.57;99199.03;4364145;32;34557;-95
2023/05/21 12:52:07;;;;;;;;;;;;;;;30.58;29.83;99202.06;4365083;32;33304;-96
2023/05/21 12:54:35;;;;;;;;;;;;;;;30.78;29.29;99198.31;4363750;32;34640;-96
2023/05/21 12:57:13;;;;;;;;;;;;;;;29.65;32.55;99191.09;4363484;32;35267;-96
2023/05/21 12:59:48;;;;;;;;;;;;;;;30.54;30.77;99189.94;4351897;32;34093;-96